sensor_id;sensor_type;location;lat;lon;timestamp;P1;durP1;ratioP1;P2;durP2;ratioP2
37529;SDS011;23374;52.758;6.872;2022-11-04T00:00:17;5.97;;;3.73;;
37529;SDS011;23374;52.758;6.872;2022-11-04T00:02:37;4.23;;;3.00;;
37529;SDS011;23374;52.758;6.872;2022-11-04T00:04:57;5.63;;;3.27;;
37529;SDS011;23374;52.758;6.872;2022-11-04T00:07:17;4.93;;;3.50;;
37529;SDS011;23374;52.758;6.872;2022-11-04T00:09:58;3.80;;;3.20;;
37529;SDS011;23374;52.758;6.872;2022-11-04T00:12:18;3.57;;;2.60;;
37529;SDS011;23374;52.758;6.872;2022-11-04T00:14:44;3.90;;;2.30;;
37529;SDS011;23374;52.758;6.872;2022-11-04T00:17:04;2.70;;;1.83;;
37529;SDS011;23374;52.758;6.872;2022-11-04T00:19:43;2.10;;;1.30;;
37529;SDS011;23374;52.758;6.872;2022-11-04T00:22:22;2.70;;;1.10;;
37529;SDS011;23374;52.758;6.872;2022-11-04T00:25:01;1.50;;;0.83;;
37529;SDS011;23374;52.758;6.872;2022-11-04T00:27:40;3.70;;;1.03;;
37529;SDS011;23374;52.758;6.872;2022-11-04T00:30:19;2.87;;;0.80;;
37529;SDS011;23374;52.758;6.872;2022-11-04T00:32:39;3.20;;;0.70;;
37529;SDS011;23374;52.758;6.872;2022-11-04T00:35:18;1.63;;;0.33;;
37529;SDS011;23374;52.758;6.872;2022-11-04T00:37:40;0.50;;;0.33;;
37529;SDS011;23374;52.758;6.872;2022-11-04T00:40:02;0.50;;;0.40;;
37529;SDS011;23374;52.758;6.872;2022-11-04T00:42:22;4.47;;;0.50;;
37529;SDS011;23374;52.758;6.872;2022-11-04T00:44:42;1.13;;;0.30;;
37529;SDS011;23374;52.758;6.872;2022-11-04T00:47:02;0.43;;;0.40;;
37529;SDS011;23374;52.758;6.872;2022-11-04T00:49:23;0.50;;;0.40;;
37529;SDS011;23374;52.758;6.872;2022-11-04T00:51:43;1.10;;;0.47;;
37529;SDS011;23374;52.758;6.872;2022-11-04T00:54:03;1.07;;;0.60;;
37529;SDS011;23374;52.758;6.872;2022-11-04T00:56:23;0.40;;;0.30;;
37529;SDS011;23374;52.758;6.872;2022-11-04T00:58:44;0.83;;;0.40;;
37529;SDS011;23374;52.758;6.872;2022-11-04T01:01:09;4.73;;;0.30;;
37529;SDS011;23374;52.758;6.872;2022-11-04T01:03:30;1.23;;;0.63;;
37529;SDS011;23374;52.758;6.872;2022-11-04T01:05:51;0.63;;;0.30;;
37529;SDS011;23374;52.758;6.872;2022-11-04T01:08:11;0.57;;;0.30;;
37529;SDS011;23374;52.758;6.872;2022-11-04T01:10:34;0.83;;;0.37;;
37529;SDS011;23374;52.758;6.872;2022-11-04T01:12:55;0.53;;;0.33;;
37529;SDS011;23374;52.758;6.872;2022-11-04T01:15:15;1.97;;;0.50;;
37529;SDS011;23374;52.758;6.872;2022-11-04T01:17:35;0.40;;;0.30;;
37529;SDS011;23374;52.758;6.872;2022-11-04T01:19:56;0.93;;;0.33;;
37529;SDS011;23374;52.758;6.872;2022-11-04T01:22:16;2.03;;;0.67;;
37529;SDS011;23374;52.758;6.872;2022-11-04T01:24:36;0.70;;;0.40;;
37529;SDS011;23374;52.758;6.872;2022-11-04T01:26:56;1.80;;;0.40;;
37529;SDS011;23374;52.758;6.872;2022-11-04T01:29:16;0.50;;;0.20;;
37529;SDS011;23374;52.758;6.872;2022-11-04T01:31:37;0.37;;;0.20;;
37529;SDS011;23374;52.758;6.872;2022-11-04T01:33:58;1.57;;;0.40;;
37529;SDS011;23374;52.758;6.872;2022-11-04T01:36:19;0.50;;;0.30;;
37529;SDS011;23374;52.758;6.872;2022-11-04T01:38:40;1.57;;;0.40;;
37529;SDS011;23374;52.758;6.872;2022-11-04T01:41:01;1.17;;;0.57;;
37529;SDS011;23374;52.758;6.872;2022-11-04T01:43:43;1.23;;;0.50;;
37529;SDS011;23374;52.758;6.872;2022-11-04T01:46:08;0.47;;;0.40;;
37529;SDS011;23374;52.758;6.872;2022-11-04T01:48:41;4.63;;;0.60;;
37529;SDS011;23374;52.758;6.872;2022-11-04T01:51:02;2.87;;;0.50;;
37529;SDS011;23374;52.758;6.872;2022-11-04T01:53:25;2.00;;;0.43;;
37529;SDS011;23374;52.758;6.872;2022-11-04T01:55:52;3.03;;;0.60;;
37529;SDS011;23374;52.758;6.872;2022-11-04T01:58:16;3.47;;;0.70;;
37529;SDS011;23374;52.758;6.872;2022-11-04T02:00:39;1.17;;;0.63;;
37529;SDS011;23374;52.758;6.872;2022-11-04T02:03:04;1.77;;;0.60;;
37529;SDS011;23374;52.758;6.872;2022-11-04T02:05:30;3.37;;;1.03;;
37529;SDS011;23374;52.758;6.872;2022-11-04T02:07:53;3.80;;;0.93;;
37529;SDS011;23374;52.758;6.872;2022-11-04T02:10:17;2.93;;;1.10;;
37529;SDS011;23374;52.758;6.872;2022-11-04T02:12:41;1.83;;;1.20;;
37529;SDS011;23374;52.758;6.872;2022-11-04T02:15:10;4.77;;;1.30;;
37529;SDS011;23374;52.758;6.872;2022-11-04T02:17:53;1.63;;;1.10;;
37529;SDS011;23374;52.758;6.872;2022-11-04T02:29:48;3.20;;;1.93;;
37529;SDS011;23374;52.758;6.872;2022-11-04T02:32:37;3.87;;;2.17;;
37529;SDS011;23374;52.758;6.872;2022-11-04T02:36:15;4.60;;;2.77;;
37529;SDS011;23374;52.758;6.872;2022-11-04T02:45:39;6.87;;;2.70;;
37529;SDS011;23374;52.758;6.872;2022-11-04T02:48:13;5.87;;;2.60;;
37529;SDS011;23374;52.758;6.872;2022-11-04T02:50:59;6.10;;;2.87;;
37529;SDS011;23374;52.758;6.872;2022-11-04T02:53:43;6.13;;;2.90;;
37529;SDS011;23374;52.758;6.872;2022-11-04T02:56:11;6.13;;;3.00;;
37529;SDS011;23374;52.758;6.872;2022-11-04T02:58:42;4.93;;;3.20;;
37529;SDS011;23374;52.758;6.872;2022-11-04T03:01:07;6.77;;;2.80;;
37529;SDS011;23374;52.758;6.872;2022-11-04T03:03:37;5.10;;;2.93;;
37529;SDS011;23374;52.758;6.872;2022-11-04T03:06:02;3.90;;;2.70;;
37529;SDS011;23374;52.758;6.872;2022-11-04T03:08:28;4.30;;;1.87;;
37529;SDS011;23374;52.758;6.872;2022-11-04T03:10:55;5.77;;;2.60;;
37529;SDS011;23374;52.758;6.872;2022-11-04T03:13:33;4.07;;;2.63;;
37529;SDS011;23374;52.758;6.872;2022-11-04T03:16:01;3.97;;;2.67;;
37529;SDS011;23374;52.758;6.872;2022-11-04T03:21:36;5.07;;;2.50;;
37529;SDS011;23374;52.758;6.872;2022-11-04T03:24:02;4.63;;;2.63;;
37529;SDS011;23374;52.758;6.872;2022-11-04T03:31:00;2.97;;;1.80;;
37529;SDS011;23374;52.758;6.872;2022-11-04T03:33:42;3.27;;;1.60;;
37529;SDS011;23374;52.758;6.872;2022-11-04T03:36:07;4.00;;;2.03;;
37529;SDS011;23374;52.758;6.872;2022-11-04T03:38:28;3.00;;;1.77;;
37529;SDS011;23374;52.758;6.872;2022-11-04T03:40:49;3.67;;;2.20;;
37529;SDS011;23374;52.758;6.872;2022-11-04T03:43:13;3.50;;;1.90;;
37529;SDS011;23374;52.758;6.872;2022-11-04T03:45:39;2.23;;;1.60;;
37529;SDS011;23374;52.758;6.872;2022-11-04T03:48:01;2.90;;;2.07;;
37529;SDS011;23374;52.758;6.872;2022-11-04T03:50:31;6.33;;;2.10;;
37529;SDS011;23374;52.758;6.872;2022-11-04T03:53:00;4.70;;;1.77;;
37529;SDS011;23374;52.758;6.872;2022-11-04T03:55:29;4.27;;;2.17;;
37529;SDS011;23374;52.758;6.872;2022-11-04T03:59:49;2.90;;;1.67;;
37529;SDS011;23374;52.758;6.872;2022-11-04T04:10:13;2.00;;;0.83;;
37529;SDS011;23374;52.758;6.872;2022-11-04T04:13:01;2.83;;;1.17;;
37529;SDS011;23374;52.758;6.872;2022-11-04T04:15:39;1.13;;;0.67;;
37529;SDS011;23374;52.758;6.872;2022-11-04T04:18:06;0.87;;;0.40;;
37529;SDS011;23374;52.758;6.872;2022-11-04T04:20:31;1.90;;;0.37;;
37529;SDS011;23374;52.758;6.872;2022-11-04T04:23:07;0.37;;;0.33;;
37529;SDS011;23374;52.758;6.872;2022-11-04T04:25:52;1.90;;;0.30;;
37529;SDS011;23374;52.758;6.872;2022-11-04T04:28:33;0.33;;;0.33;;
37529;SDS011;23374;52.758;6.872;2022-11-04T04:30:54;0.30;;;0.20;;
37529;SDS011;23374;52.758;6.872;2022-11-04T04:33:15;0.30;;;0.20;;
37529;SDS011;23374;52.758;6.872;2022-11-04T04:35:43;0.77;;;0.27;;
37529;SDS011;23374;52.758;6.872;2022-11-04T04:38:30;0.40;;;0.30;;
37529;SDS011;23374;52.758;6.872;2022-11-04T04:47:42;1.43;;;0.40;;
37529;SDS011;23374;52.758;6.872;2022-11-04T04:50:04;0.87;;;0.40;;
37529;SDS011;23374;52.758;6.872;2022-11-04T04:52:29;1.97;;;0.30;;
37529;SDS011;23374;52.758;6.872;2022-11-04T04:54:51;1.90;;;0.40;;
37529;SDS011;23374;52.758;6.872;2022-11-04T04:57:11;1.90;;;0.47;;
37529;SDS011;23374;52.758;6.872;2022-11-04T04:59:32;1.00;;;0.50;;
37529;SDS011;23374;52.758;6.872;2022-11-04T05:01:52;1.80;;;0.60;;
37529;SDS011;23374;52.758;6.872;2022-11-04T05:04:12;1.43;;;0.40;;
37529;SDS011;23374;52.758;6.872;2022-11-04T05:06:32;1.13;;;0.60;;
37529;SDS011;23374;52.758;6.872;2022-11-04T05:08:52;0.80;;;0.50;;
37529;SDS011;23374;52.758;6.872;2022-11-04T05:11:12;1.60;;;0.60;;
37529;SDS011;23374;52.758;6.872;2022-11-04T05:13:33;1.20;;;0.50;;
37529;SDS011;23374;52.758;6.872;2022-11-04T05:15:53;1.50;;;0.60;;
37529;SDS011;23374;52.758;6.872;2022-11-04T05:18:13;2.60;;;0.77;;
37529;SDS011;23374;52.758;6.872;2022-11-04T05:20:35;2.23;;;0.60;;
37529;SDS011;23374;52.758;6.872;2022-11-04T05:22:57;1.13;;;0.70;;
37529;SDS011;23374;52.758;6.872;2022-11-04T05:25:17;1.73;;;0.80;;
37529;SDS011;23374;52.758;6.872;2022-11-04T05:27:37;0.97;;;0.60;;
37529;SDS011;23374;52.758;6.872;2022-11-04T05:29:57;2.97;;;0.70;;
37529;SDS011;23374;52.758;6.872;2022-11-04T05:32:18;5.10;;;0.70;;
37529;SDS011;23374;52.758;6.872;2022-11-04T05:34:38;0.67;;;0.40;;
37529;SDS011;23374;52.758;6.872;2022-11-04T05:36:58;2.27;;;0.60;;
37529;SDS011;23374;52.758;6.872;2022-11-04T05:39:18;1.27;;;0.60;;
37529;SDS011;23374;52.758;6.872;2022-11-04T05:41:39;0.60;;;0.30;;
37529;SDS011;23374;52.758;6.872;2022-11-04T05:44:01;1.03;;;0.40;;
37529;SDS011;23374;52.758;6.872;2022-11-04T05:46:23;5.73;;;0.70;;
37529;SDS011;23374;52.758;6.872;2022-11-04T05:48:44;1.17;;;0.40;;
37529;SDS011;23374;52.758;6.872;2022-11-04T05:51:04;0.63;;;0.27;;
37529;SDS011;23374;52.758;6.872;2022-11-04T05:53:24;1.13;;;0.43;;
37529;SDS011;23374;52.758;6.872;2022-11-04T05:55:44;1.80;;;0.30;;
37529;SDS011;23374;52.758;6.872;2022-11-04T05:58:04;2.50;;;0.27;;
37529;SDS011;23374;52.758;6.872;2022-11-04T06:00:26;1.07;;;0.30;;
37529;SDS011;23374;52.758;6.872;2022-11-04T06:02:46;0.70;;;0.20;;
37529;SDS011;23374;52.758;6.872;2022-11-04T06:05:07;0.20;;;0.20;;
37529;SDS011;23374;52.758;6.872;2022-11-04T06:07:28;0.57;;;0.30;;
37529;SDS011;23374;52.758;6.872;2022-11-04T06:09:48;0.40;;;0.20;;
37529;SDS011;23374;52.758;6.872;2022-11-04T06:12:10;1.00;;;0.40;;
37529;SDS011;23374;52.758;6.872;2022-11-04T06:14:35;0.70;;;0.50;;
37529;SDS011;23374;52.758;6.872;2022-11-04T06:16:56;0.93;;;0.30;;
37529;SDS011;23374;52.758;6.872;2022-11-04T06:19:16;0.43;;;0.27;;
37529;SDS011;23374;52.758;6.872;2022-11-04T06:21:37;2.43;;;0.60;;
37529;SDS011;23374;52.758;6.872;2022-11-04T06:23:58;1.83;;;0.50;;
37529;SDS011;23374;52.758;6.872;2022-11-04T06:26:19;2.40;;;0.90;;
37529;SDS011;23374;52.758;6.872;2022-11-04T06:28:40;3.50;;;0.80;;
37529;SDS011;23374;52.758;6.872;2022-11-04T06:31:02;4.63;;;1.10;;
37529;SDS011;23374;52.758;6.872;2022-11-04T06:33:24;2.43;;;1.30;;
37529;SDS011;23374;52.758;6.872;2022-11-04T06:35:45;2.00;;;1.17;;
37529;SDS011;23374;52.758;6.872;2022-11-04T06:38:06;3.23;;;1.17;;
37529;SDS011;23374;52.758;6.872;2022-11-04T06:40:26;2.53;;;1.03;;
37529;SDS011;23374;52.758;6.872;2022-11-04T06:42:46;2.43;;;1.20;;
37529;SDS011;23374;52.758;6.872;2022-11-04T06:45:06;1.80;;;1.27;;
37529;SDS011;23374;52.758;6.872;2022-11-04T06:47:28;1.83;;;0.90;;
37529;SDS011;23374;52.758;6.872;2022-11-04T06:49:48;3.20;;;1.13;;
37529;SDS011;23374;52.758;6.872;2022-11-04T06:52:08;3.80;;;1.20;;
37529;SDS011;23374;52.758;6.872;2022-11-04T06:54:28;4.37;;;0.97;;
37529;SDS011;23374;52.758;6.872;2022-11-04T06:56:49;1.23;;;0.70;;
37529;SDS011;23374;52.758;6.872;2022-11-04T06:59:17;1.53;;;0.67;;
37529;SDS011;23374;52.758;6.872;2022-11-04T07:01:38;2.63;;;1.03;;
37529;SDS011;23374;52.758;6.872;2022-11-04T07:03:59;4.17;;;1.07;;
37529;SDS011;23374;52.758;6.872;2022-11-04T07:06:21;3.77;;;1.13;;
37529;SDS011;23374;52.758;6.872;2022-11-04T07:08:41;1.80;;;0.73;;
37529;SDS011;23374;52.758;6.872;2022-11-04T07:11:02;1.13;;;0.90;;
37529;SDS011;23374;52.758;6.872;2022-11-04T07:13:23;4.30;;;1.13;;
37529;SDS011;23374;52.758;6.872;2022-11-04T07:15:43;2.37;;;1.10;;
37529;SDS011;23374;52.758;6.872;2022-11-04T07:18:04;2.83;;;1.00;;
37529;SDS011;23374;52.758;6.872;2022-11-04T07:20:25;2.80;;;1.10;;
37529;SDS011;23374;52.758;6.872;2022-11-04T07:22:45;1.73;;;1.13;;
37529;SDS011;23374;52.758;6.872;2022-11-04T07:25:06;2.00;;;1.50;;
37529;SDS011;23374;52.758;6.872;2022-11-04T07:27:28;3.17;;;1.20;;
37529;SDS011;23374;52.758;6.872;2022-11-04T07:29:48;2.87;;;1.50;;
37529;SDS011;23374;52.758;6.872;2022-11-04T07:32:08;4.33;;;2.00;;
37529;SDS011;23374;52.758;6.872;2022-11-04T07:34:28;4.47;;;2.03;;
37529;SDS011;23374;52.758;6.872;2022-11-04T07:36:51;6.53;;;2.23;;
37529;SDS011;23374;52.758;6.872;2022-11-04T07:39:12;4.33;;;2.63;;
37529;SDS011;23374;52.758;6.872;2022-11-04T07:41:33;4.87;;;2.77;;
37529;SDS011;23374;52.758;6.872;2022-11-04T07:43:53;6.43;;;3.43;;
37529;SDS011;23374;52.758;6.872;2022-11-04T07:46:14;8.57;;;3.50;;
37529;SDS011;23374;52.758;6.872;2022-11-04T07:48:34;8.77;;;3.63;;
37529;SDS011;23374;52.758;6.872;2022-11-04T07:50:57;8.00;;;3.97;;
37529;SDS011;23374;52.758;6.872;2022-11-04T07:53:18;8.33;;;4.50;;
37529;SDS011;23374;52.758;6.872;2022-11-04T07:55:38;10.07;;;4.90;;
37529;SDS011;23374;52.758;6.872;2022-11-04T07:57:58;12.73;;;5.27;;
37529;SDS011;23374;52.758;6.872;2022-11-04T08:00:19;11.37;;;5.97;;
37529;SDS011;23374;52.758;6.872;2022-11-04T08:02:43;11.33;;;6.23;;
37529;SDS011;23374;52.758;6.872;2022-11-04T08:05:06;11.47;;;5.37;;
37529;SDS011;23374;52.758;6.872;2022-11-04T08:07:27;9.40;;;5.57;;
37529;SDS011;23374;52.758;6.872;2022-11-04T08:09:48;12.80;;;5.93;;
37529;SDS011;23374;52.758;6.872;2022-11-04T08:12:08;11.47;;;5.70;;
37529;SDS011;23374;52.758;6.872;2022-11-04T08:14:29;15.87;;;6.93;;
37529;SDS011;23374;52.758;6.872;2022-11-04T08:16:50;12.80;;;6.90;;
37529;SDS011;23374;52.758;6.872;2022-11-04T08:19:10;17.13;;;7.33;;
37529;SDS011;23374;52.758;6.872;2022-11-04T08:21:31;14.30;;;7.50;;
37529;SDS011;23374;52.758;6.872;2022-11-04T08:23:52;18.20;;;7.30;;
37529;SDS011;23374;52.758;6.872;2022-11-04T08:26:17;11.67;;;6.23;;
37529;SDS011;23374;52.758;6.872;2022-11-04T08:28:39;18.73;;;7.87;;
37529;SDS011;23374;52.758;6.872;2022-11-04T08:31:02;16.10;;;6.70;;
37529;SDS011;23374;52.758;6.872;2022-11-04T08:33:36;16.10;;;6.80;;
37529;SDS011;23374;52.758;6.872;2022-11-04T08:36:08;17.10;;;7.80;;
37529;SDS011;23374;52.758;6.872;2022-11-04T08:38:30;16.00;;;7.80;;
37529;SDS011;23374;52.758;6.872;2022-11-04T08:40:56;16.70;;;7.73;;
37529;SDS011;23374;52.758;6.872;2022-11-04T08:43:17;24.53;;;8.90;;
37529;SDS011;23374;52.758;6.872;2022-11-04T08:45:39;22.30;;;8.57;;
37529;SDS011;23374;52.758;6.872;2022-11-04T08:48:01;16.57;;;8.20;;
37529;SDS011;23374;52.758;6.872;2022-11-04T08:50:22;16.30;;;7.63;;
37529;SDS011;23374;52.758;6.872;2022-11-04T08:52:46;22.17;;;9.40;;
37529;SDS011;23374;52.758;6.872;2022-11-04T08:55:07;18.57;;;8.17;;
37529;SDS011;23374;52.758;6.872;2022-11-04T08:57:28;21.03;;;8.63;;
37529;SDS011;23374;52.758;6.872;2022-11-04T08:59:50;18.93;;;8.23;;
37529;SDS011;23374;52.758;6.872;2022-11-04T09:02:13;17.73;;;8.00;;
37529;SDS011;23374;52.758;6.872;2022-11-04T09:04:37;19.00;;;8.03;;
37529;SDS011;23374;52.758;6.872;2022-11-04T09:06:57;16.33;;;7.33;;
37529;SDS011;23374;52.758;6.872;2022-11-04T09:09:17;16.93;;;7.77;;
37529;SDS011;23374;52.758;6.872;2022-11-04T09:11:39;17.60;;;8.53;;
37529;SDS011;23374;52.758;6.872;2022-11-04T09:14:01;16.87;;;7.73;;
37529;SDS011;23374;52.758;6.872;2022-11-04T09:16:22;14.83;;;7.77;;
37529;SDS011;23374;52.758;6.872;2022-11-04T09:18:42;17.67;;;8.13;;
37529;SDS011;23374;52.758;6.872;2022-11-04T09:21:03;16.03;;;7.40;;
37529;SDS011;23374;52.758;6.872;2022-11-04T09:23:24;16.97;;;8.30;;
37529;SDS011;23374;52.758;6.872;2022-11-04T09:25:45;20.20;;;8.00;;
37529;SDS011;23374;52.758;6.872;2022-11-04T09:28:05;20.10;;;8.10;;
37529;SDS011;23374;52.758;6.872;2022-11-04T09:30:26;16.57;;;7.50;;
37529;SDS011;23374;52.758;6.872;2022-11-04T09:32:46;17.93;;;7.80;;
37529;SDS011;23374;52.758;6.872;2022-11-04T09:35:07;18.17;;;8.57;;
37529;SDS011;23374;52.758;6.872;2022-11-04T09:37:28;17.50;;;8.80;;
37529;SDS011;23374;52.758;6.872;2022-11-04T09:39:48;21.10;;;9.27;;
37529;SDS011;23374;52.758;6.872;2022-11-04T09:46:27;21.27;;;9.50;;
37529;SDS011;23374;52.758;6.872;2022-11-04T09:48:53;18.70;;;7.93;;
37529;SDS011;23374;52.758;6.872;2022-11-04T09:51:18;20.90;;;9.43;;
37529;SDS011;23374;52.758;6.872;2022-11-04T09:54:01;22.87;;;10.10;;
37529;SDS011;23374;52.758;6.872;2022-11-04T09:56:37;23.23;;;9.77;;
37529;SDS011;23374;52.758;6.872;2022-11-04T09:59:02;19.07;;;10.17;;
37529;SDS011;23374;52.758;6.872;2022-11-04T10:01:55;23.30;;;10.17;;
37529;SDS011;23374;52.758;6.872;2022-11-04T10:06:29;24.70;;;11.27;;
37529;SDS011;23374;52.758;6.872;2022-11-04T10:10:37;24.57;;;9.93;;
37529;SDS011;23374;52.758;6.872;2022-11-04T10:13:26;21.87;;;9.57;;
37529;SDS011;23374;52.758;6.872;2022-11-04T10:19:29;26.43;;;9.63;;
37529;SDS011;23374;52.758;6.872;2022-11-04T10:22:58;21.93;;;10.13;;
37529;SDS011;23374;52.758;6.872;2022-11-04T10:25:56;22.77;;;11.20;;
37529;SDS011;23374;52.758;6.872;2022-11-04T10:28:38;21.40;;;11.00;;
37529;SDS011;23374;52.758;6.872;2022-11-04T10:31:02;22.60;;;10.67;;
37529;SDS011;23374;52.758;6.872;2022-11-04T10:33:28;18.33;;;10.20;;
37529;SDS011;23374;52.758;6.872;2022-11-04T10:36:05;18.40;;;9.80;;
37529;SDS011;23374;52.758;6.872;2022-11-04T10:38:55;23.97;;;11.03;;
37529;SDS011;23374;52.758;6.872;2022-11-04T10:42:17;23.90;;;11.00;;
37529;SDS011;23374;52.758;6.872;2022-11-04T10:44:40;22.77;;;11.20;;
37529;SDS011;23374;52.758;6.872;2022-11-04T10:50:57;19.77;;;9.70;;
37529;SDS011;23374;52.758;6.872;2022-11-04T10:53:25;18.47;;;9.23;;
37529;SDS011;23374;52.758;6.872;2022-11-04T10:56:51;19.03;;;10.07;;
37529;SDS011;23374;52.758;6.872;2022-11-04T11:02:17;21.83;;;10.43;;
37529;SDS011;23374;52.758;6.872;2022-11-04T11:04:38;22.30;;;10.17;;
37529;SDS011;23374;52.758;6.872;2022-11-04T11:07:08;21.97;;;10.27;;
37529;SDS011;23374;52.758;6.872;2022-11-04T11:09:31;23.97;;;9.53;;
37529;SDS011;23374;52.758;6.872;2022-11-04T11:12:00;21.27;;;10.17;;
37529;SDS011;23374;52.758;6.872;2022-11-04T11:14:33;18.50;;;9.37;;
37529;SDS011;23374;52.758;6.872;2022-11-04T11:16:56;17.97;;;9.40;;
37529;SDS011;23374;52.758;6.872;2022-11-04T11:20:23;19.63;;;8.67;;
37529;SDS011;23374;52.758;6.872;2022-11-04T11:22:46;18.20;;;8.63;;
37529;SDS011;23374;52.758;6.872;2022-11-04T11:25:34;20.70;;;10.07;;
37529;SDS011;23374;52.758;6.872;2022-11-04T11:28:05;15.90;;;8.57;;
37529;SDS011;23374;52.758;6.872;2022-11-04T11:33:35;18.90;;;8.87;;
37529;SDS011;23374;52.758;6.872;2022-11-04T11:36:14;16.90;;;8.57;;
37529;SDS011;23374;52.758;6.872;2022-11-04T11:39:30;15.70;;;8.03;;
37529;SDS011;23374;52.758;6.872;2022-11-04T11:41:58;20.20;;;9.23;;
37529;SDS011;23374;52.758;6.872;2022-11-04T11:44:39;16.83;;;8.70;;
37529;SDS011;23374;52.758;6.872;2022-11-04T11:47:20;13.40;;;7.60;;
37529;SDS011;23374;52.758;6.872;2022-11-04T11:50:28;18.23;;;7.77;;
37529;SDS011;23374;52.758;6.872;2022-11-04T11:59:15;14.10;;;7.47;;
37529;SDS011;23374;52.758;6.872;2022-11-04T12:03:24;15.20;;;7.43;;
37529;SDS011;23374;52.758;6.872;2022-11-04T12:09:02;12.80;;;6.87;;
37529;SDS011;23374;52.758;6.872;2022-11-04T12:12:00;15.10;;;6.77;;
37529;SDS011;23374;52.758;6.872;2022-11-04T12:30:10;14.30;;;6.80;;
37529;SDS011;23374;52.758;6.872;2022-11-04T12:47:44;11.87;;;6.47;;
37529;SDS011;23374;52.758;6.872;2022-11-04T12:51:49;11.63;;;6.47;;
37529;SDS011;23374;52.758;6.872;2022-11-04T13:00:21;13.03;;;5.67;;
37529;SDS011;23374;52.758;6.872;2022-11-04T13:02:48;11.27;;;5.97;;
37529;SDS011;23374;52.758;6.872;2022-11-04T13:06:41;12.27;;;7.20;;
37529;SDS011;23374;52.758;6.872;2022-11-04T13:09:53;13.13;;;6.70;;
37529;SDS011;23374;52.758;6.872;2022-11-04T13:12:23;11.27;;;5.33;;
37529;SDS011;23374;52.758;6.872;2022-11-04T13:15:04;3.70;;;1.40;;
37529;SDS011;23374;52.758;6.872;2022-11-04T13:17:38;3.53;;;1.10;;
37529;SDS011;23374;52.758;6.872;2022-11-04T13:21:34;4.00;;;0.70;;
37529;SDS011;23374;52.758;6.872;2022-11-04T13:24:02;0.87;;;0.50;;
37529;SDS011;23374;52.758;6.872;2022-11-04T13:26:49;1.80;;;0.60;;
37529;SDS011;23374;52.758;6.872;2022-11-04T13:29:15;0.40;;;0.40;;
37529;SDS011;23374;52.758;6.872;2022-11-04T13:31:50;3.17;;;0.50;;
37529;SDS011;23374;52.758;6.872;2022-11-04T13:34:56;0.60;;;0.30;;
37529;SDS011;23374;52.758;6.872;2022-11-04T13:37:32;6.27;;;0.60;;
37529;SDS011;23374;52.758;6.872;2022-11-04T13:40:14;0.90;;;0.67;;
37529;SDS011;23374;52.758;6.872;2022-11-04T13:43:46;3.83;;;0.80;;
37529;SDS011;23374;52.758;6.872;2022-11-04T13:46:24;1.67;;;0.57;;
37529;SDS011;23374;52.758;6.872;2022-11-04T13:49:32;7.97;;;0.63;;
37529;SDS011;23374;52.758;6.872;2022-11-04T13:52:07;1.63;;;0.40;;
37529;SDS011;23374;52.758;6.872;2022-11-04T14:04:28;3.07;;;0.67;;
37529;SDS011;23374;52.758;6.872;2022-11-04T14:07:03;2.77;;;0.53;;
37529;SDS011;23374;52.758;6.872;2022-11-04T14:09:35;2.37;;;0.43;;
37529;SDS011;23374;52.758;6.872;2022-11-04T14:12:29;1.30;;;0.47;;
37529;SDS011;23374;52.758;6.872;2022-11-04T14:14:57;2.43;;;0.47;;
37529;SDS011;23374;52.758;6.872;2022-11-04T14:18:27;0.70;;;0.40;;
37529;SDS011;23374;52.758;6.872;2022-11-04T14:21:07;1.33;;;0.60;;
37529;SDS011;23374;52.758;6.872;2022-11-04T14:23:32;2.97;;;0.60;;
37529;SDS011;23374;52.758;6.872;2022-11-04T14:26:01;4.07;;;0.70;;
37529;SDS011;23374;52.758;6.872;2022-11-04T14:28:28;2.13;;;0.77;;
37529;SDS011;23374;52.758;6.872;2022-11-04T14:30:51;1.37;;;0.47;;
37529;SDS011;23374;52.758;6.872;2022-11-04T14:34:33;0.93;;;0.57;;
37529;SDS011;23374;52.758;6.872;2022-11-04T14:36:59;1.23;;;0.67;;
37529;SDS011;23374;52.758;6.872;2022-11-04T14:39:38;1.10;;;0.50;;
37529;SDS011;23374;52.758;6.872;2022-11-04T14:42:02;1.53;;;0.50;;
37529;SDS011;23374;52.758;6.872;2022-11-04T14:44:59;2.30;;;0.80;;
37529;SDS011;23374;52.758;6.872;2022-11-04T14:47:23;4.63;;;0.60;;
37529;SDS011;23374;52.758;6.872;2022-11-04T14:50:02;1.90;;;0.60;;
37529;SDS011;23374;52.758;6.872;2022-11-04T14:52:37;3.13;;;0.60;;
37529;SDS011;23374;52.758;6.872;2022-11-04T14:55:15;1.03;;;0.57;;
37529;SDS011;23374;52.758;6.872;2022-11-04T14:57:43;2.10;;;0.57;;
37529;SDS011;23374;52.758;6.872;2022-11-04T15:01:57;1.57;;;0.67;;
37529;SDS011;23374;52.758;6.872;2022-11-04T15:04:28;1.60;;;0.53;;
37529;SDS011;23374;52.758;6.872;2022-11-04T15:06:57;3.83;;;1.03;;
37529;SDS011;23374;52.758;6.872;2022-11-04T15:09:20;3.43;;;0.77;;
37529;SDS011;23374;52.758;6.872;2022-11-04T15:11:49;9.80;;;0.90;;
37529;SDS011;23374;52.758;6.872;2022-11-04T15:14:51;1.00;;;0.70;;
37529;SDS011;23374;52.758;6.872;2022-11-04T15:17:16;2.60;;;0.73;;
37529;SDS011;23374;52.758;6.872;2022-11-04T15:19:38;5.50;;;0.70;;
37529;SDS011;23374;52.758;6.872;2022-11-04T15:22:00;2.50;;;0.87;;
37529;SDS011;23374;52.758;6.872;2022-11-04T15:24:22;2.83;;;0.90;;
37529;SDS011;23374;52.758;6.872;2022-11-04T15:26:49;2.33;;;0.80;;
37529;SDS011;23374;52.758;6.872;2022-11-04T15:29:14;3.27;;;0.73;;
37529;SDS011;23374;52.758;6.872;2022-11-04T15:31:37;3.87;;;1.00;;
37529;SDS011;23374;52.758;6.872;2022-11-04T15:34:09;2.70;;;1.20;;
37529;SDS011;23374;52.758;6.872;2022-11-04T15:36:36;3.63;;;1.30;;
37529;SDS011;23374;52.758;6.872;2022-11-04T15:39:24;6.60;;;2.00;;
37529;SDS011;23374;52.758;6.872;2022-11-04T15:41:50;3.73;;;1.93;;
37529;SDS011;23374;52.758;6.872;2022-11-04T15:44:35;2.43;;;1.20;;
37529;SDS011;23374;52.758;6.872;2022-11-04T15:47:02;4.57;;;1.97;;
37529;SDS011;23374;52.758;6.872;2022-11-04T15:51:19;6.03;;;1.97;;
37529;SDS011;23374;52.758;6.872;2022-11-04T15:54:01;4.60;;;1.43;;
37529;SDS011;23374;52.758;6.872;2022-11-04T15:56:28;3.17;;;1.37;;
37529;SDS011;23374;52.758;6.872;2022-11-04T15:59:01;2.90;;;1.20;;
37529;SDS011;23374;52.758;6.872;2022-11-04T16:01:27;4.93;;;1.57;;
37529;SDS011;23374;52.758;6.872;2022-11-04T16:04:05;2.03;;;1.43;;
37529;SDS011;23374;52.758;6.872;2022-11-04T16:06:33;3.33;;;1.20;;
37529;SDS011;23374;52.758;6.872;2022-11-04T16:09:22;2.20;;;1.00;;
37529;SDS011;23374;52.758;6.872;2022-11-04T16:21:28;1.07;;;0.70;;
37529;SDS011;23374;52.758;6.872;2022-11-04T16:23:58;1.13;;;0.87;;
37529;SDS011;23374;52.758;6.872;2022-11-04T16:26:30;5.53;;;1.10;;
37529;SDS011;23374;52.758;6.872;2022-11-04T16:28:57;3.67;;;1.30;;
37529;SDS011;23374;52.758;6.872;2022-11-04T16:31:26;3.43;;;1.30;;
37529;SDS011;23374;52.758;6.872;2022-11-04T16:33:51;5.07;;;1.30;;
37529;SDS011;23374;52.758;6.872;2022-11-04T16:36:13;2.40;;;1.27;;
37529;SDS011;23374;52.758;6.872;2022-11-04T16:38:43;3.83;;;1.30;;
37529;SDS011;23374;52.758;6.872;2022-11-04T16:41:03;2.90;;;1.30;;
37529;SDS011;23374;52.758;6.872;2022-11-04T16:43:23;2.63;;;1.30;;
37529;SDS011;23374;52.758;6.872;2022-11-04T16:45:45;3.27;;;1.50;;
37529;SDS011;23374;52.758;6.872;2022-11-04T16:48:08;4.33;;;1.40;;
37529;SDS011;23374;52.758;6.872;2022-11-04T16:50:33;2.53;;;1.60;;
37529;SDS011;23374;52.758;6.872;2022-11-04T16:52:53;3.47;;;1.60;;
37529;SDS011;23374;52.758;6.872;2022-11-04T16:55:14;2.93;;;1.43;;
37529;SDS011;23374;52.758;6.872;2022-11-04T16:57:34;3.53;;;1.70;;
37529;SDS011;23374;52.758;6.872;2022-11-04T16:59:55;5.63;;;1.73;;
37529;SDS011;23374;52.758;6.872;2022-11-04T17:02:32;7.10;;;2.17;;
37529;SDS011;23374;52.758;6.872;2022-11-04T17:04:58;4.10;;;1.73;;
37529;SDS011;23374;52.758;6.872;2022-11-04T17:07:19;6.80;;;1.70;;